sensor_id;sensor_type;location;lat;lon;timestamp;P1;durP1;ratioP1;P2;durP2;ratioP2
41815;SDS011;27814;53.452;-6.180;2022-10-22T00:01:13;9.10;;;1.50;;
41815;SDS011;27814;53.452;-6.180;2022-10-22T00:03:41;7.40;;;1.83;;
41815;SDS011;27814;53.452;-6.180;2022-10-22T00:06:10;12.02;;;1.60;;
41815;SDS011;27814;53.452;-6.180;2022-10-22T00:08:39;10.23;;;1.93;;
41815;SDS011;27814;53.452;-6.180;2022-10-22T00:11:08;10.32;;;1.95;;
41815;SDS011;27814;53.452;-6.180;2022-10-22T00:13:38;7.30;;;1.65;;
41815;SDS011;27814;53.452;-6.180;2022-10-22T00:16:06;11.35;;;2.20;;
41815;SDS011;27814;53.452;-6.180;2022-10-22T00:18:35;10.80;;;1.88;;
41815;SDS011;27814;53.452;-6.180;2022-10-22T00:21:04;8.40;;;1.65;;
41815;SDS011;27814;53.452;-6.180;2022-10-22T00:23:33;10.85;;;1.73;;
41815;SDS011;27814;53.452;-6.180;2022-10-22T00:26:03;7.97;;;1.92;;
41815;SDS011;27814;53.452;-6.180;2022-10-22T00:28:31;8.75;;;2.25;;
41815;SDS011;27814;53.452;-6.180;2022-10-22T00:31:00;6.65;;;2.13;;
41815;SDS011;27814;53.452;-6.180;2022-10-22T00:33:29;7.93;;;1.38;;
41815;SDS011;27814;53.452;-6.180;2022-10-22T00:35:57;5.57;;;1.30;;
41815;SDS011;27814;53.452;-6.180;2022-10-22T00:38:26;5.05;;;1.00;;
41815;SDS011;27814;53.452;-6.180;2022-10-22T00:40:54;4.97;;;1.10;;
41815;SDS011;27814;53.452;-6.180;2022-10-22T00:43:24;3.30;;;0.98;;
41815;SDS011;27814;53.452;-6.180;2022-10-22T00:45:53;3.90;;;1.05;;
41815;SDS011;27814;53.452;-6.180;2022-10-22T00:48:22;2.17;;;0.60;;
41815;SDS011;27814;53.452;-6.180;2022-10-22T00:50:55;4.30;;;0.80;;
41815;SDS011;27814;53.452;-6.180;2022-10-22T00:53:27;1.50;;;0.57;;
41815;SDS011;27814;53.452;-6.180;2022-10-22T00:55:58;5.80;;;1.10;;
41815;SDS011;27814;53.452;-6.180;2022-10-22T00:58:30;3.42;;;0.90;;
41815;SDS011;27814;53.452;-6.180;2022-10-22T01:01:01;2.95;;;0.60;;
41815;SDS011;27814;53.452;-6.180;2022-10-22T01:03:32;3.20;;;0.80;;
41815;SDS011;27814;53.452;-6.180;2022-10-22T01:06:00;4.75;;;0.70;;
41815;SDS011;27814;53.452;-6.180;2022-10-22T01:08:32;2.33;;;0.70;;
41815;SDS011;27814;53.452;-6.180;2022-10-22T01:11:08;2.03;;;0.60;;
41815;SDS011;27814;53.452;-6.180;2022-10-22T01:13:47;2.17;;;0.60;;
41815;SDS011;27814;53.452;-6.180;2022-10-22T01:16:23;3.60;;;0.68;;
41815;SDS011;27814;53.452;-6.180;2022-10-22T01:19:00;2.03;;;0.70;;
41815;SDS011;27814;53.452;-6.180;2022-10-22T01:21:37;3.20;;;0.68;;
41815;SDS011;27814;53.452;-6.180;2022-10-22T01:24:20;1.00;;;0.40;;
41815;SDS011;27814;53.452;-6.180;2022-10-22T01:27:05;1.30;;;0.50;;
41815;SDS011;27814;53.452;-6.180;2022-10-22T01:29:42;1.75;;;0.40;;
41815;SDS011;27814;53.452;-6.180;2022-10-22T01:32:16;3.20;;;0.70;;
41815;SDS011;27814;53.452;-6.180;2022-10-22T01:34:48;1.60;;;0.47;;
41815;SDS011;27814;53.452;-6.180;2022-10-22T01:37:20;2.87;;;0.50;;
41815;SDS011;27814;53.452;-6.180;2022-10-22T01:39:52;2.33;;;0.65;;
41815;SDS011;27814;53.452;-6.180;2022-10-22T01:42:22;1.83;;;0.50;;
41815;SDS011;27814;53.452;-6.180;2022-10-22T01:44:52;1.27;;;0.50;;
41815;SDS011;27814;53.452;-6.180;2022-10-22T01:47:24;1.33;;;0.75;;
41815;SDS011;27814;53.452;-6.180;2022-10-22T01:50:12;2.38;;;0.50;;
41815;SDS011;27814;53.452;-6.180;2022-10-22T01:52:52;2.55;;;0.30;;
41815;SDS011;27814;53.452;-6.180;2022-10-22T01:55:32;1.17;;;0.45;;
41815;SDS011;27814;53.452;-6.180;2022-10-22T01:58:21;2.42;;;0.30;;
41815;SDS011;27814;53.452;-6.180;2022-10-22T02:01:03;2.50;;;0.70;;
41815;SDS011;27814;53.452;-6.180;2022-10-22T02:03:37;3.10;;;0.47;;
41815;SDS011;27814;53.452;-6.180;2022-10-22T02:06:13;0.88;;;0.22;;
41815;SDS011;27814;53.452;-6.180;2022-10-22T02:08:45;2.40;;;0.30;;
41815;SDS011;27814;53.452;-6.180;2022-10-22T02:11:15;3.30;;;0.80;;
41815;SDS011;27814;53.452;-6.180;2022-10-22T02:13:44;2.85;;;0.52;;
41815;SDS011;27814;53.452;-6.180;2022-10-22T02:16:17;1.58;;;0.50;;
41815;SDS011;27814;53.452;-6.180;2022-10-22T02:18:48;1.17;;;0.40;;
41815;SDS011;27814;53.452;-6.180;2022-10-22T02:21:20;4.60;;;0.43;;
41815;SDS011;27814;53.452;-6.180;2022-10-22T02:23:48;7.38;;;0.55;;
41815;SDS011;27814;53.452;-6.180;2022-10-22T02:26:18;1.58;;;0.50;;
41815;SDS011;27814;53.452;-6.180;2022-10-22T02:28:51;2.40;;;0.40;;
41815;SDS011;27814;53.452;-6.180;2022-10-22T02:31:28;2.60;;;0.50;;
41815;SDS011;27814;53.452;-6.180;2022-10-22T02:34:01;3.20;;;0.40;;
41815;SDS011;27814;53.452;-6.180;2022-10-22T02:36:35;1.67;;;0.30;;
41815;SDS011;27814;53.452;-6.180;2022-10-22T02:39:05;1.92;;;0.45;;
41815;SDS011;27814;53.452;-6.180;2022-10-22T02:41:36;1.50;;;0.50;;
41815;SDS011;27814;53.452;-6.180;2022-10-22T02:44:06;2.00;;;0.47;;
41815;SDS011;27814;53.452;-6.180;2022-10-22T02:46:38;3.20;;;0.60;;
41815;SDS011;27814;53.452;-6.180;2022-10-22T02:49:09;1.27;;;0.47;;
41815;SDS011;27814;53.452;-6.180;2022-10-22T02:51:37;2.67;;;0.47;;
41815;SDS011;27814;53.452;-6.180;2022-10-22T02:54:05;1.70;;;0.40;;
41815;SDS011;27814;53.452;-6.180;2022-10-22T02:56:34;1.55;;;0.40;;
41815;SDS011;27814;53.452;-6.180;2022-10-22T02:59:02;1.20;;;0.38;;
41815;SDS011;27814;53.452;-6.180;2022-10-22T03:01:31;3.80;;;0.70;;
41815;SDS011;27814;53.452;-6.180;2022-10-22T03:04:00;2.33;;;0.30;;
41815;SDS011;27814;53.452;-6.180;2022-10-22T03:06:29;2.00;;;0.40;;
41815;SDS011;27814;53.452;-6.180;2022-10-22T03:08:57;1.70;;;0.40;;
41815;SDS011;27814;53.452;-6.180;2022-10-22T03:11:26;2.13;;;0.32;;
41815;SDS011;27814;53.452;-6.180;2022-10-22T03:13:54;2.33;;;0.40;;
41815;SDS011;27814;53.452;-6.180;2022-10-22T03:16:22;1.80;;;0.30;;
41815;SDS011;27814;53.452;-6.180;2022-10-22T03:18:50;2.15;;;0.35;;
41815;SDS011;27814;53.452;-6.180;2022-10-22T03:21:23;3.10;;;0.38;;
41815;SDS011;27814;53.452;-6.180;2022-10-22T03:23:56;1.50;;;0.30;;
41815;SDS011;27814;53.452;-6.180;2022-10-22T03:26:26;2.30;;;0.30;;
41815;SDS011;27814;53.452;-6.180;2022-10-22T03:28:54;4.57;;;0.40;;
41815;SDS011;27814;53.452;-6.180;2022-10-22T03:31:23;1.40;;;0.30;;
41815;SDS011;27814;53.452;-6.180;2022-10-22T03:33:51;1.13;;;0.30;;
41815;SDS011;27814;53.452;-6.180;2022-10-22T03:36:21;2.83;;;0.63;;
41815;SDS011;27814;53.452;-6.180;2022-10-22T03:38:49;1.75;;;0.52;;
41815;SDS011;27814;53.452;-6.180;2022-10-22T03:41:17;2.63;;;0.40;;
41815;SDS011;27814;53.452;-6.180;2022-10-22T03:43:46;2.10;;;0.40;;
41815;SDS011;27814;53.452;-6.180;2022-10-22T03:46:18;3.20;;;0.40;;
41815;SDS011;27814;53.452;-6.180;2022-10-22T03:48:47;4.15;;;0.70;;
41815;SDS011;27814;53.452;-6.180;2022-10-22T03:51:15;2.55;;;0.50;;
41815;SDS011;27814;53.452;-6.180;2022-10-22T03:53:45;5.20;;;0.60;;
41815;SDS011;27814;53.452;-6.180;2022-10-22T03:56:13;1.65;;;0.55;;
41815;SDS011;27814;53.452;-6.180;2022-10-22T03:58:42;5.22;;;0.75;;
41815;SDS011;27814;53.452;-6.180;2022-10-22T04:01:10;2.95;;;0.80;;
41815;SDS011;27814;53.452;-6.180;2022-10-22T04:03:40;3.80;;;0.70;;
41815;SDS011;27814;53.452;-6.180;2022-10-22T04:06:08;3.28;;;0.60;;
41815;SDS011;27814;53.452;-6.180;2022-10-22T04:08:38;9.07;;;1.10;;
41815;SDS011;27814;53.452;-6.180;2022-10-22T04:11:09;2.17;;;0.47;;
41815;SDS011;27814;53.452;-6.180;2022-10-22T04:13:39;2.23;;;0.50;;
41815;SDS011;27814;53.452;-6.180;2022-10-22T04:16:08;3.70;;;0.80;;
41815;SDS011;27814;53.452;-6.180;2022-10-22T04:18:37;2.40;;;0.60;;
41815;SDS011;27814;53.452;-6.180;2022-10-22T04:21:07;5.47;;;1.10;;
41815;SDS011;27814;53.452;-6.180;2022-10-22T04:23:36;6.32;;;0.73;;
41815;SDS011;27814;53.452;-6.180;2022-10-22T04:26:05;5.68;;;0.73;;
41815;SDS011;27814;53.452;-6.180;2022-10-22T04:28:36;3.88;;;0.55;;
41815;SDS011;27814;53.452;-6.180;2022-10-22T04:31:06;3.75;;;0.55;;
41815;SDS011;27814;53.452;-6.180;2022-10-22T04:33:36;4.97;;;0.68;;
41815;SDS011;27814;53.452;-6.180;2022-10-22T04:36:05;7.93;;;0.98;;
41815;SDS011;27814;53.452;-6.180;2022-10-22T04:38:34;3.33;;;0.52;;
41815;SDS011;27814;53.452;-6.180;2022-10-22T04:41:09;2.67;;;0.82;;
41815;SDS011;27814;53.452;-6.180;2022-10-22T04:43:40;3.28;;;0.60;;
41815;SDS011;27814;53.452;-6.180;2022-10-22T04:46:08;3.70;;;0.77;;
41815;SDS011;27814;53.452;-6.180;2022-10-22T04:48:38;3.75;;;0.77;;
41815;SDS011;27814;53.452;-6.180;2022-10-22T04:51:08;2.50;;;0.73;;
41815;SDS011;27814;53.452;-6.180;2022-10-22T04:53:38;4.68;;;0.93;;
41815;SDS011;27814;53.452;-6.180;2022-10-22T04:56:07;7.72;;;0.90;;
41815;SDS011;27814;53.452;-6.180;2022-10-22T04:58:38;5.78;;;0.77;;
41815;SDS011;27814;53.452;-6.180;2022-10-22T05:01:08;4.55;;;0.70;;
41815;SDS011;27814;53.452;-6.180;2022-10-22T05:03:38;5.28;;;0.75;;
41815;SDS011;27814;53.452;-6.180;2022-10-22T05:06:06;4.53;;;0.80;;
41815;SDS011;27814;53.452;-6.180;2022-10-22T05:08:35;4.93;;;1.00;;
41815;SDS011;27814;53.452;-6.180;2022-10-22T05:11:09;7.07;;;1.10;;
41815;SDS011;27814;53.452;-6.180;2022-10-22T05:13:39;5.43;;;1.13;;
41815;SDS011;27814;53.452;-6.180;2022-10-22T05:16:08;6.90;;;1.02;;
41815;SDS011;27814;53.452;-6.180;2022-10-22T05:18:37;7.75;;;1.15;;
41815;SDS011;27814;53.452;-6.180;2022-10-22T05:21:07;4.67;;;0.70;;
41815;SDS011;27814;53.452;-6.180;2022-10-22T05:23:37;8.75;;;1.42;;
41815;SDS011;27814;53.452;-6.180;2022-10-22T05:26:06;5.65;;;0.90;;
41815;SDS011;27814;53.452;-6.180;2022-10-22T05:28:36;6.32;;;1.13;;
41815;SDS011;27814;53.452;-6.180;2022-10-22T05:31:06;6.07;;;1.23;;
41815;SDS011;27814;53.452;-6.180;2022-10-22T05:33:37;9.70;;;1.00;;
41815;SDS011;27814;53.452;-6.180;2022-10-22T05:36:06;6.63;;;1.20;;
41815;SDS011;27814;53.452;-6.180;2022-10-22T05:38:36;9.48;;;1.25;;
41815;SDS011;27814;53.452;-6.180;2022-10-22T05:41:05;7.57;;;1.10;;
41815;SDS011;27814;53.452;-6.180;2022-10-22T05:43:35;6.78;;;1.05;;
41815;SDS011;27814;53.452;-6.180;2022-10-22T05:46:04;6.07;;;0.93;;
41815;SDS011;27814;53.452;-6.180;2022-10-22T05:48:35;5.57;;;1.13;;
41815;SDS011;27814;53.452;-6.180;2022-10-22T05:51:04;6.90;;;0.90;;
41815;SDS011;27814;53.452;-6.180;2022-10-22T05:53:34;7.00;;;1.08;;
41815;SDS011;27814;53.452;-6.180;2022-10-22T05:56:04;10.10;;;1.50;;
41815;SDS011;27814;53.452;-6.180;2022-10-22T05:58:34;9.80;;;1.40;;
41815;SDS011;27814;53.452;-6.180;2022-10-22T06:01:04;9.82;;;1.20;;
41815;SDS011;27814;53.452;-6.180;2022-10-22T06:03:35;7.30;;;1.35;;
41815;SDS011;27814;53.452;-6.180;2022-10-22T06:06:05;5.63;;;1.15;;
41815;SDS011;27814;53.452;-6.180;2022-10-22T06:08:47;9.60;;;1.05;;
41815;SDS011;27814;53.452;-6.180;2022-10-22T06:11:18;10.40;;;1.27;;
41815;SDS011;27814;53.452;-6.180;2022-10-22T06:13:48;6.43;;;1.08;;
41815;SDS011;27814;53.452;-6.180;2022-10-22T06:16:16;8.23;;;1.43;;
41815;SDS011;27814;53.452;-6.180;2022-10-22T06:18:46;6.50;;;1.10;;
41815;SDS011;27814;53.452;-6.180;2022-10-22T06:21:14;8.87;;;1.30;;
41815;SDS011;27814;53.452;-6.180;2022-10-22T06:23:43;6.10;;;1.02;;
41815;SDS011;27814;53.452;-6.180;2022-10-22T06:26:12;5.43;;;1.20;;
41815;SDS011;27814;53.452;-6.180;2022-10-22T06:28:40;7.70;;;1.65;;
41815;SDS011;27814;53.452;-6.180;2022-10-22T06:31:09;7.68;;;1.60;;
41815;SDS011;27814;53.452;-6.180;2022-10-22T06:33:37;6.32;;;1.25;;
41815;SDS011;27814;53.452;-6.180;2022-10-22T06:36:10;8.40;;;1.40;;
41815;SDS011;27814;53.452;-6.180;2022-10-22T06:38:40;6.90;;;1.30;;
41815;SDS011;27814;53.452;-6.180;2022-10-22T06:41:10;5.35;;;0.85;;
41815;SDS011;27814;53.452;-6.180;2022-10-22T06:43:39;6.65;;;1.05;;
41815;SDS011;27814;53.452;-6.180;2022-10-22T06:46:10;5.45;;;1.23;;
41815;SDS011;27814;53.452;-6.180;2022-10-22T06:48:47;8.00;;;1.52;;
41815;SDS011;27814;53.452;-6.180;2022-10-22T06:51:17;7.97;;;1.48;;
41815;SDS011;27814;53.452;-6.180;2022-10-22T06:53:46;4.53;;;1.35;;
41815;SDS011;27814;53.452;-6.180;2022-10-22T06:56:16;4.80;;;1.50;;
41815;SDS011;27814;53.452;-6.180;2022-10-22T06:58:45;7.47;;;1.77;;
41815;SDS011;27814;53.452;-6.180;2022-10-22T07:01:15;6.70;;;1.33;;
41815;SDS011;27814;53.452;-6.180;2022-10-22T07:03:45;9.80;;;1.63;;
41815;SDS011;27814;53.452;-6.180;2022-10-22T07:06:13;9.07;;;1.30;;
41815;SDS011;27814;53.452;-6.180;2022-10-22T07:08:43;4.82;;;1.10;;
41815;SDS011;27814;53.452;-6.180;2022-10-22T07:11:13;8.00;;;1.27;;
41815;SDS011;27814;53.452;-6.180;2022-10-22T07:13:43;5.23;;;1.10;;
41815;SDS011;27814;53.452;-6.180;2022-10-22T07:16:12;6.20;;;1.15;;
41815;SDS011;27814;53.452;-6.180;2022-10-22T07:18:40;5.82;;;1.45;;
41815;SDS011;27814;53.452;-6.180;2022-10-22T07:21:09;4.72;;;1.40;;
41815;SDS011;27814;53.452;-6.180;2022-10-22T07:23:39;7.28;;;1.50;;
41815;SDS011;27814;53.452;-6.180;2022-10-22T07:26:10;7.82;;;1.83;;
41815;SDS011;27814;53.452;-6.180;2022-10-22T07:28:41;5.32;;;1.13;;
41815;SDS011;27814;53.452;-6.180;2022-10-22T07:31:10;7.10;;;1.38;;
41815;SDS011;27814;53.452;-6.180;2022-10-22T07:33:40;6.25;;;1.90;;
41815;SDS011;27814;53.452;-6.180;2022-10-22T07:36:09;6.85;;;2.47;;
41815;SDS011;27814;53.452;-6.180;2022-10-22T07:38:43;7.18;;;1.85;;
41815;SDS011;27814;53.452;-6.180;2022-10-22T07:41:14;3.72;;;1.17;;
41815;SDS011;27814;53.452;-6.180;2022-10-22T07:43:43;6.93;;;1.88;;
41815;SDS011;27814;53.452;-6.180;2022-10-22T07:46:12;5.57;;;1.90;;
41815;SDS011;27814;53.452;-6.180;2022-10-22T07:48:40;4.80;;;1.40;;
41815;SDS011;27814;53.452;-6.180;2022-10-22T07:51:08;6.68;;;1.80;;
41815;SDS011;27814;53.452;-6.180;2022-10-22T07:53:37;10.98;;;2.05;;
41815;SDS011;27814;53.452;-6.180;2022-10-22T07:56:05;12.43;;;3.87;;
41815;SDS011;27814;53.452;-6.180;2022-10-22T07:58:35;7.78;;;1.92;;
41815;SDS011;27814;53.452;-6.180;2022-10-22T08:01:04;6.82;;;1.65;;
41815;SDS011;27814;53.452;-6.180;2022-10-22T08:03:32;8.82;;;2.13;;
41815;SDS011;27814;53.452;-6.180;2022-10-22T08:06:01;5.57;;;1.83;;
41815;SDS011;27814;53.452;-6.180;2022-10-22T08:08:29;5.78;;;1.42;;
41815;SDS011;27814;53.452;-6.180;2022-10-22T08:10:59;5.70;;;1.27;;
41815;SDS011;27814;53.452;-6.180;2022-10-22T08:13:28;8.40;;;1.35;;
41815;SDS011;27814;53.452;-6.180;2022-10-22T08:15:58;5.67;;;1.57;;
41815;SDS011;27814;53.452;-6.180;2022-10-22T08:18:27;6.32;;;1.45;;
41815;SDS011;27814;53.452;-6.180;2022-10-22T08:20:56;7.78;;;1.20;;
41815;SDS011;27814;53.452;-6.180;2022-10-22T08:23:24;7.65;;;1.08;;
41815;SDS011;27814;53.452;-6.180;2022-10-22T08:25:54;8.00;;;1.08;;
41815;SDS011;27814;53.452;-6.180;2022-10-22T08:28:23;4.93;;;1.10;;
41815;SDS011;27814;53.452;-6.180;2022-10-22T08:30:53;6.15;;;0.90;;
41815;SDS011;27814;53.452;-6.180;2022-10-22T08:33:23;4.78;;;0.88;;
41815;SDS011;27814;53.452;-6.180;2022-10-22T08:35:51;7.18;;;1.08;;
41815;SDS011;27814;53.452;-6.180;2022-10-22T08:38:20;8.43;;;0.95;;
41815;SDS011;27814;53.452;-6.180;2022-10-22T08:40:49;7.80;;;1.00;;
41815;SDS011;27814;53.452;-6.180;2022-10-22T08:43:25;6.00;;;1.17;;
41815;SDS011;27814;53.452;-6.180;2022-10-22T08:46:08;6.38;;;1.20;;
41815;SDS011;27814;53.452;-6.180;2022-10-22T08:48:46;9.32;;;1.48;;
41815;SDS011;27814;53.452;-6.180;2022-10-22T08:51:17;5.88;;;1.25;;
41815;SDS011;27814;53.452;-6.180;2022-10-22T08:53:52;6.70;;;0.98;;
41815;SDS011;27814;53.452;-6.180;2022-10-22T08:56:32;5.75;;;1.10;;
41815;SDS011;27814;53.452;-6.180;2022-10-22T08:59:04;4.32;;;0.77;;
41815;SDS011;27814;53.452;-6.180;2022-10-22T09:01:38;5.57;;;1.20;;
41815;SDS011;27814;53.452;-6.180;2022-10-22T09:04:11;7.22;;;1.13;;
41815;SDS011;27814;53.452;-6.180;2022-10-22T09:06:51;4.27;;;0.70;;
41815;SDS011;27814;53.452;-6.180;2022-10-22T09:09:21;7.22;;;1.00;;
41815;SDS011;27814;53.452;-6.180;2022-10-22T09:11:53;5.07;;;0.85;;
41815;SDS011;27814;53.452;-6.180;2022-10-22T09:14:25;7.72;;;0.95;;
41815;SDS011;27814;53.452;-6.180;2022-10-22T09:17:04;9.10;;;0.80;;
41815;SDS011;27814;53.452;-6.180;2022-10-22T09:19:43;8.85;;;0.90;;
41815;SDS011;27814;53.452;-6.180;2022-10-22T09:22:22;5.63;;;1.27;;
41815;SDS011;27814;53.452;-6.180;2022-10-22T09:24:57;5.97;;;1.30;;
41815;SDS011;27814;53.452;-6.180;2022-10-22T09:27:29;5.90;;;1.10;;
41815;SDS011;27814;53.452;-6.180;2022-10-22T09:29:59;6.68;;;1.00;;
41815;SDS011;27814;53.452;-6.180;2022-10-22T09:32:28;4.32;;;0.85;;
41815;SDS011;27814;53.452;-6.180;2022-10-22T09:34:58;5.40;;;0.80;;
41815;SDS011;27814;53.452;-6.180;2022-10-22T09:37:28;4.80;;;0.85;;
41815;SDS011;27814;53.452;-6.180;2022-10-22T09:39:56;5.43;;;1.30;;
41815;SDS011;27814;53.452;-6.180;2022-10-22T09:42:26;5.43;;;1.07;;
41815;SDS011;27814;53.452;-6.180;2022-10-22T09:44:55;12.20;;;1.67;;
41815;SDS011;27814;53.452;-6.180;2022-10-22T09:47:26;4.17;;;0.80;;
41815;SDS011;27814;53.452;-6.180;2022-10-22T09:53:04;6.43;;;0.95;;
41815;SDS011;27814;53.452;-6.180;2022-10-22T09:55:39;5.40;;;1.17;;
41815;SDS011;27814;53.452;-6.180;2022-10-22T09:58:10;11.43;;;1.52;;
41815;SDS011;27814;53.452;-6.180;2022-10-22T10:00:42;4.82;;;1.00;;
41815;SDS011;27814;53.452;-6.180;2022-10-22T10:03:14;5.10;;;0.90;;
41815;SDS011;27814;53.452;-6.180;2022-10-22T10:05:48;8.30;;;1.42;;
41815;SDS011;27814;53.452;-6.180;2022-10-22T10:08:18;6.28;;;0.93;;
41815;SDS011;27814;53.452;-6.180;2022-10-22T10:10:47;20.17;;;5.03;;
41815;SDS011;27814;53.452;-6.180;2022-10-22T10:13:29;4.22;;;1.13;;
41815;SDS011;27814;53.452;-6.180;2022-10-22T10:16:24;6.03;;;1.13;;
41815;SDS011;27814;53.452;-6.180;2022-10-22T10:19:01;4.82;;;1.08;;
41815;SDS011;27814;53.452;-6.180;2022-10-22T10:21:45;4.80;;;1.10;;
41815;SDS011;27814;53.452;-6.180;2022-10-22T10:24:22;4.90;;;1.02;;
41815;SDS011;27814;53.452;-6.180;2022-10-22T10:26:58;8.63;;;1.13;;
41815;SDS011;27814;53.452;-6.180;2022-10-22T10:29:35;5.82;;;1.13;;
41815;SDS011;27814;53.452;-6.180;2022-10-22T10:32:16;4.72;;;1.10;;
41815;SDS011;27814;53.452;-6.180;2022-10-22T10:35:10;3.88;;;1.00;;
41815;SDS011;27814;53.452;-6.180;2022-10-22T10:37:49;3.97;;;0.93;;
41815;SDS011;27814;53.452;-6.180;2022-10-22T10:40:32;5.05;;;1.20;;
41815;SDS011;27814;53.452;-6.180;2022-10-22T10:43:08;4.75;;;1.15;;
41815;SDS011;27814;53.452;-6.180;2022-10-22T10:45:41;2.78;;;0.60;;
41815;SDS011;27814;53.452;-6.180;2022-10-22T10:48:24;3.92;;;0.80;;
41815;SDS011;27814;53.452;-6.180;2022-10-22T10:51:07;6.30;;;0.85;;
41815;SDS011;27814;53.452;-6.180;2022-10-22T10:53:54;4.43;;;0.70;;
41815;SDS011;27814;53.452;-6.180;2022-10-22T10:56:34;3.10;;;0.82;;
41815;SDS011;27814;53.452;-6.180;2022-10-22T10:59:13;3.67;;;0.60;;
41815;SDS011;27814;53.452;-6.180;2022-10-22T11:01:53;3.00;;;0.70;;
41815;SDS011;27814;53.452;-6.180;2022-10-22T11:04:33;3.92;;;0.80;;
41815;SDS011;27814;53.452;-6.180;2022-10-22T11:07:16;4.25;;;1.00;;
41815;SDS011;27814;53.452;-6.180;2022-10-22T11:10:03;4.82;;;0.70;;
41815;SDS011;27814;53.452;-6.180;2022-10-22T11:12:40;4.82;;;0.85;;
41815;SDS011;27814;53.452;-6.180;2022-10-22T11:15:15;2.95;;;0.60;;
41815;SDS011;27814;53.452;-6.180;2022-10-22T11:17:50;5.35;;;0.90;;
41815;SDS011;27814;53.452;-6.180;2022-10-22T11:20:21;3.63;;;0.70;;
41815;SDS011;27814;53.452;-6.180;2022-10-22T11:22:56;4.30;;;0.80;;
41815;SDS011;27814;53.452;-6.180;2022-10-22T11:25:48;5.55;;;1.00;;
41815;SDS011;27814;53.452;-6.180;2022-10-22T11:28:18;5.40;;;1.20;;
41815;SDS011;27814;53.452;-6.180;2022-10-22T11:30:55;5.47;;;0.90;;
41815;SDS011;27814;53.452;-6.180;2022-10-22T11:33:28;3.93;;;0.80;;
41815;SDS011;27814;53.452;-6.180;2022-10-22T11:36:05;5.50;;;0.80;;
41815;SDS011;27814;53.452;-6.180;2022-10-22T11:38:35;4.95;;;0.98;;
41815;SDS011;27814;53.452;-6.180;2022-10-22T11:41:08;5.78;;;1.02;;
41815;SDS011;27814;53.452;-6.180;2022-10-22T11:43:52;4.05;;;0.70;;
41815;SDS011;27814;53.452;-6.180;2022-10-22T11:46:26;3.05;;;0.70;;
41815;SDS011;27814;53.452;-6.180;2022-10-22T11:49:15;6.57;;;1.25;;
41815;SDS011;27814;53.452;-6.180;2022-10-22T11:52:04;4.65;;;1.10;;
41815;SDS011;27814;53.452;-6.180;2022-10-22T11:54:51;4.40;;;0.98;;
41815;SDS011;27814;53.452;-6.180;2022-10-22T11:57:25;4.53;;;1.10;;
41815;SDS011;27814;53.452;-6.180;2022-10-22T11:59:56;3.70;;;0.80;;
41815;SDS011;27814;53.452;-6.180;2022-10-22T12:02:29;3.40;;;0.67;;
41815;SDS011;27814;53.452;-6.180;2022-10-22T12:05:16;3.57;;;1.00;;
41815;SDS011;27814;53.452;-6.180;2022-10-22T12:07:50;6.85;;;0.90;;
41815;SDS011;27814;53.452;-6.180;2022-10-22T12:10:24;4.13;;;1.02;;
41815;SDS011;27814;53.452;-6.180;2022-10-22T12:13:00;3.60;;;1.00;;
41815;SDS011;27814;53.452;-6.180;2022-10-22T12:15:31;5.50;;;0.70;;
41815;SDS011;27814;53.452;-6.180;2022-10-22T12:18:00;6.03;;;1.00;;
41815;SDS011;27814;53.452;-6.180;2022-10-22T12:20:31;5.80;;;0.90;;
41815;SDS011;27814;53.452;-6.180;2022-10-22T12:23:00;3.75;;;0.88;;
41815;SDS011;27814;53.452;-6.180;2022-10-22T12:25:29;4.47;;;0.65;;
41815;SDS011;27814;53.452;-6.180;2022-10-22T12:28:02;6.03;;;0.98;;
41815;SDS011;27814;53.452;-6.180;2022-10-22T12:30:32;4.82;;;0.73;;
41815;SDS011;27814;53.452;-6.180;2022-10-22T12:33:01;6.25;;;1.00;;
41815;SDS011;27814;53.452;-6.180;2022-10-22T12:35:31;3.03;;;0.60;;
41815;SDS011;27814;53.452;-6.180;2022-10-22T12:38:01;5.53;;;0.90;;
41815;SDS011;27814;53.452;-6.180;2022-10-22T12:40:34;2.65;;;0.80;;
41815;SDS011;27814;53.452;-6.180;2022-10-22T12:43:09;3.72;;;0.80;;
41815;SDS011;27814;53.452;-6.180;2022-10-22T12:45:39;3.83;;;0.70;;
41815;SDS011;27814;53.452;-6.180;2022-10-22T12:48:13;2.50;;;0.70;;
41815;SDS011;27814;53.452;-6.180;2022-10-22T12:50:44;2.42;;;0.77;;
41815;SDS011;27814;53.452;-6.180;2022-10-22T12:53:16;3.28;;;0.65;;
41815;SDS011;27814;53.452;-6.180;2022-10-22T12:55:47;5.33;;;0.70;;
41815;SDS011;27814;53.452;-6.180;2022-10-22T12:58:20;4.30;;;0.70;;
41815;SDS011;27814;53.452;-6.180;2022-10-22T13:00:56;3.83;;;1.35;;
41815;SDS011;27814;53.452;-6.180;2022-10-22T13:03:28;2.45;;;0.60;;
41815;SDS011;27814;53.452;-6.180;2022-10-22T13:06:10;5.60;;;0.60;;
41815;SDS011;27814;53.452;-6.180;2022-10-22T13:08:39;6.57;;;0.70;;
41815;SDS011;27814;53.452;-6.180;2022-10-22T13:11:09;2.97;;;0.50;;
41815;SDS011;27814;53.452;-6.180;2022-10-22T13:13:42;4.50;;;0.70;;
41815;SDS011;27814;53.452;-6.180;2022-10-22T13:16:16;2.95;;;0.60;;
41815;SDS011;27814;53.452;-6.180;2022-10-22T13:18:47;4.95;;;0.70;;
41815;SDS011;27814;53.452;-6.180;2022-10-22T13:21:22;3.45;;;0.70;;
41815;SDS011;27814;53.452;-6.180;2022-10-22T13:23:57;3.40;;;0.70;;
41815;SDS011;27814;53.452;-6.180;2022-10-22T13:26:30;2.38;;;0.65;;
41815;SDS011;27814;53.452;-6.180;2022-10-22T13:29:02;3.85;;;0.70;;
41815;SDS011;27814;53.452;-6.180;2022-10-22T13:31:43;2.00;;;0.57;;
41815;SDS011;27814;53.452;-6.180;2022-10-22T13:34:13;4.82;;;0.82;;
41815;SDS011;27814;53.452;-6.180;2022-10-22T13:36:44;3.05;;;0.60;;
41815;SDS011;27814;53.452;-6.180;2022-10-22T13:39:14;5.07;;;0.80;;
41815;SDS011;27814;53.452;-6.180;2022-10-22T13:41:44;3.70;;;0.85;;
41815;SDS011;27814;53.452;-6.180;2022-10-22T13:44:17;3.83;;;0.90;;
41815;SDS011;27814;53.452;-6.180;2022-10-22T13:46:45;5.63;;;1.20;;
41815;SDS011;27814;53.452;-6.180;2022-10-22T13:49:15;3.08;;;0.60;;
41815;SDS011;27814;53.452;-6.180;2022-10-22T13:51:45;4.45;;;1.00;;
41815;SDS011;27814;53.452;-6.180;2022-10-22T13:54:16;5.05;;;0.82;;
41815;SDS011;27814;53.452;-6.180;2022-10-22T13:56:46;4.88;;;1.00;;
41815;SDS011;27814;53.452;-6.180;2022-10-22T13:59:14;3.75;;;0.82;;
41815;SDS011;27814;53.452;-6.180;2022-10-22T14:01:49;2.92;;;0.57;;
41815;SDS011;27814;53.452;-6.180;2022-10-22T14:04:17;3.83;;;0.63;;
41815;SDS011;27814;53.452;-6.180;2022-10-22T14:06:46;3.33;;;0.90;;
41815;SDS011;27814;53.452;-6.180;2022-10-22T14:09:14;5.77;;;0.97;;
41815;SDS011;27814;53.452;-6.180;2022-10-22T14:11:42;5.70;;;1.00;;
41815;SDS011;27814;53.452;-6.180;2022-10-22T14:14:11;4.30;;;0.90;;
41815;SDS011;27814;53.452;-6.180;2022-10-22T14:16:44;3.27;;;0.70;;
41815;SDS011;27814;53.452;-6.180;2022-10-22T14:19:13;8.90;;;1.02;;
41815;SDS011;27814;53.452;-6.180;2022-10-22T14:21:43;6.18;;;1.30;;
41815;SDS011;27814;53.452;-6.180;2022-10-22T14:24:12;6.70;;;1.42;;
41815;SDS011;27814;53.452;-6.180;2022-10-22T14:26:40;5.60;;;1.08;;
41815;SDS011;27814;53.452;-6.180;2022-10-22T14:29:08;2.90;;;0.80;;
41815;SDS011;27814;53.452;-6.180;2022-10-22T14:31:37;4.57;;;1.07;;
41815;SDS011;27814;53.452;-6.180;2022-10-22T14:34:09;6.13;;;1.10;;
41815;SDS011;27814;53.452;-6.180;2022-10-22T14:36:38;4.28;;;0.98;;
41815;SDS011;27814;53.452;-6.180;2022-10-22T14:39:09;4.03;;;0.80;;
41815;SDS011;27814;53.452;-6.180;2022-10-22T14:41:38;4.60;;;1.02;;
41815;SDS011;27814;53.452;-6.180;2022-10-22T14:44:07;5.70;;;1.15;;
41815;SDS011;27814;53.452;-6.180;2022-10-22T14:46:39;3.10;;;0.80;;
41815;SDS011;27814;53.452;-6.180;2022-10-22T14:49:11;3.08;;;0.80;;
41815;SDS011;27814;53.452;-6.180;2022-10-22T14:51:40;5.65;;;0.98;;
41815;SDS011;27814;53.452;-6.180;2022-10-22T14:54:08;6.47;;;1.25;;
41815;SDS011;27814;53.452;-6.180;2022-10-22T14:56:37;5.80;;;0.80;;
41815;SDS011;27814;53.452;-6.180;2022-10-22T14:59:05;5.25;;;1.00;;
41815;SDS011;27814;53.452;-6.180;2022-10-22T15:01:33;4.05;;;1.10;;
41815;SDS011;27814;53.452;-6.180;2022-10-22T15:04:02;5.70;;;0.82;;